Norfolk Ns (Chambers Fld) Airport Norfolk US
ICAO: KNGU
IATA: NGU
Category: Medium
Scheduled Services: No

Elevation: 17 ft
TransAlt. 18000 ft.

Airport Communications:
APP:118.9
ATIS:118.425
CLNC DEL:120.7
DEP:125.2
NAVYNORFOLK HELI GND:29.895
CHAMBERS GND:121.8
AMC/ATOC:130.65
NAVYNORFOLK HELI TWR:126.375
BASE OPS:126.375
METRO:27.16
CHAMBERS TWR:124.3

KNGU Zoom In..

If you have problems with the map follow the link
https://www.worldairports.se/pages/airport.php?
ICAO=KNGU

Runways:

(A) RW 10 length 8371 ft width 200 ft
ILS 108.95 / hdg 100

(B) RW 28 length 8371 ft width 200 ft
---- / hdg 280

Location; KNGU
Day. 23 / Time. 18.59 Zulu
* Altimeter: 30.05
* Temperature: 21° c. 69.8°f.
* Wind from: 230° Speed 09 kn.
Dewpoint: 05° c.
Visibility: 10 Statute Miles.
Clouds: Few 25000 ft.

KNGU 231859Z 23009KT 10SM FEW250 21/05 A3005 RMK AO2 SLP176 T02060050


Wind From 230°
Speed 09 kn.

 
 
jpsmedia.com for Web Design worldairports.se 2018   terms of use